sensor_id;sensor_type;location;lat;lon;timestamp;P1;durP1;ratioP1;P2;durP2;ratioP2
28920;SDS011;16035;53.594;9.952;2023-07-22T00:01:27;6.00;;;4.13;;
28920;SDS011;16035;53.594;9.952;2023-07-22T00:03:27;8.53;;;4.30;;
28920;SDS011;16035;53.594;9.952;2023-07-22T00:05:28;4.27;;;3.30;;
28920;SDS011;16035;53.594;9.952;2023-07-22T00:07:28;7.27;;;4.17;;
28920;SDS011;16035;53.594;9.952;2023-07-22T00:09:28;7.63;;;4.13;;
28920;SDS011;16035;53.594;9.952;2023-07-22T00:11:28;6.00;;;3.57;;
28920;SDS011;16035;53.594;9.952;2023-07-22T00:13:30;5.57;;;3.80;;
28920;SDS011;16035;53.594;9.952;2023-07-22T00:15:31;6.20;;;4.15;;
28920;SDS011;16035;53.594;9.952;2023-07-22T00:17:31;5.57;;;3.80;;
28920;SDS011;16035;53.594;9.952;2023-07-22T00:19:32;5.63;;;4.10;;
28920;SDS011;16035;53.594;9.952;2023-07-22T00:21:32;7.18;;;4.30;;
28920;SDS011;16035;53.594;9.952;2023-07-22T00:25:34;6.10;;;4.15;;
28920;SDS011;16035;53.594;9.952;2023-07-22T00:27:35;6.67;;;4.10;;
28920;SDS011;16035;53.594;9.952;2023-07-22T00:29:39;6.70;;;4.03;;
28920;SDS011;16035;53.594;9.952;2023-07-22T00:31:40;5.67;;;3.67;;
28920;SDS011;16035;53.594;9.952;2023-07-22T00:33:41;7.00;;;4.20;;
28920;SDS011;16035;53.594;9.952;2023-07-22T00:35:41;8.60;;;5.10;;
28920;SDS011;16035;53.594;9.952;2023-07-22T00:37:42;6.43;;;4.20;;
28920;SDS011;16035;53.594;9.952;2023-07-22T00:39:42;8.47;;;4.23;;
28920;SDS011;16035;53.594;9.952;2023-07-22T00:41:42;7.37;;;4.43;;
28920;SDS011;16035;53.594;9.952;2023-07-22T00:45:44;6.77;;;4.03;;
28920;SDS011;16035;53.594;9.952;2023-07-22T00:47:44;7.03;;;4.53;;
28920;SDS011;16035;53.594;9.952;2023-07-22T00:49:47;11.10;;;4.53;;
28920;SDS011;16035;53.594;9.952;2023-07-22T00:51:49;7.20;;;4.68;;
28920;SDS011;16035;53.594;9.952;2023-07-22T00:53:49;6.97;;;5.10;;
28920;SDS011;16035;53.594;9.952;2023-07-22T00:55:49;6.87;;;4.40;;
28920;SDS011;16035;53.594;9.952;2023-07-22T00:57:50;8.20;;;4.63;;
28920;SDS011;16035;53.594;9.952;2023-07-22T00:59:50;6.70;;;4.70;;
28920;SDS011;16035;53.594;9.952;2023-07-22T01:01:51;8.13;;;4.83;;
28920;SDS011;16035;53.594;9.952;2023-07-22T01:03:51;8.67;;;4.60;;
28920;SDS011;16035;53.594;9.952;2023-07-22T01:05:51;10.40;;;5.30;;
28920;SDS011;16035;53.594;9.952;2023-07-22T01:07:54;7.95;;;5.20;;
28920;SDS011;16035;53.594;9.952;2023-07-22T01:09:57;7.73;;;5.23;;
28920;SDS011;16035;53.594;9.952;2023-07-22T01:12:01;6.28;;;4.18;;
28920;SDS011;16035;53.594;9.952;2023-07-22T01:14:01;8.07;;;4.77;;
28920;SDS011;16035;53.594;9.952;2023-07-22T01:16:01;7.93;;;4.60;;
28920;SDS011;16035;53.594;9.952;2023-07-22T01:18:02;9.30;;;4.85;;
28920;SDS011;16035;53.594;9.952;2023-07-22T01:20:04;7.05;;;4.38;;
28920;SDS011;16035;53.594;9.952;2023-07-22T01:24:07;12.27;;;4.35;;
28920;SDS011;16035;53.594;9.952;2023-07-22T01:26:08;7.57;;;4.90;;
28920;SDS011;16035;53.594;9.952;2023-07-22T01:28:11;7.57;;;4.63;;
28920;SDS011;16035;53.594;9.952;2023-07-22T01:30:11;9.65;;;4.97;;
28920;SDS011;16035;53.594;9.952;2023-07-22T01:32:12;9.57;;;4.30;;
28920;SDS011;16035;53.594;9.952;2023-07-22T01:34:12;8.80;;;5.07;;
28920;SDS011;16035;53.594;9.952;2023-07-22T01:36:12;7.57;;;4.67;;
28920;SDS011;16035;53.594;9.952;2023-07-22T01:38:13;10.63;;;4.77;;
28920;SDS011;16035;53.594;9.952;2023-07-22T01:40:13;9.83;;;4.37;;
28920;SDS011;16035;53.594;9.952;2023-07-22T01:42:14;7.83;;;4.37;;
28920;SDS011;16035;53.594;9.952;2023-07-22T01:44:14;6.23;;;4.13;;
28920;SDS011;16035;53.594;9.952;2023-07-22T01:46:14;9.80;;;4.40;;
28920;SDS011;16035;53.594;9.952;2023-07-22T01:48:15;10.20;;;4.50;;
28920;SDS011;16035;53.594;9.952;2023-07-22T01:50:16;7.20;;;4.25;;
28920;SDS011;16035;53.594;9.952;2023-07-22T01:52:18;6.30;;;4.43;;
28920;SDS011;16035;53.594;9.952;2023-07-22T01:54:18;12.17;;;4.87;;
28920;SDS011;16035;53.594;9.952;2023-07-22T01:56:19;7.37;;;4.57;;
28920;SDS011;16035;53.594;9.952;2023-07-22T01:58:22;9.82;;;4.40;;
28920;SDS011;16035;53.594;9.952;2023-07-22T02:00:22;7.47;;;4.77;;
28920;SDS011;16035;53.594;9.952;2023-07-22T02:02:22;7.67;;;4.10;;
28920;SDS011;16035;53.594;9.952;2023-07-22T02:04:23;6.70;;;4.17;;
28920;SDS011;16035;53.594;9.952;2023-07-22T02:06:23;8.33;;;4.30;;
28920;SDS011;16035;53.594;9.952;2023-07-22T02:08:23;7.63;;;4.50;;
28920;SDS011;16035;53.594;9.952;2023-07-22T02:10:24;7.37;;;4.10;;
28920;SDS011;16035;53.594;9.952;2023-07-22T02:12:24;12.00;;;4.53;;
28920;SDS011;16035;53.594;9.952;2023-07-22T02:14:24;7.90;;;4.47;;
28920;SDS011;16035;53.594;9.952;2023-07-22T02:16:25;10.83;;;5.00;;
28920;SDS011;16035;53.594;9.952;2023-07-22T02:18:25;7.83;;;3.97;;
28920;SDS011;16035;53.594;9.952;2023-07-22T02:20:26;8.23;;;4.40;;
28920;SDS011;16035;53.594;9.952;2023-07-22T02:22:28;10.48;;;4.75;;
28920;SDS011;16035;53.594;9.952;2023-07-22T02:24:29;8.67;;;4.67;;
28920;SDS011;16035;53.594;9.952;2023-07-22T02:26:29;11.00;;;4.50;;
28920;SDS011;16035;53.594;9.952;2023-07-22T02:28:29;6.63;;;4.10;;
28920;SDS011;16035;53.594;9.952;2023-07-22T02:30:30;9.53;;;4.43;;
28920;SDS011;16035;53.594;9.952;2023-07-22T02:32:30;8.17;;;4.77;;
28920;SDS011;16035;53.594;9.952;2023-07-22T02:34:30;12.30;;;4.90;;
28920;SDS011;16035;53.594;9.952;2023-07-22T02:36:31;9.70;;;4.40;;
28920;SDS011;16035;53.594;9.952;2023-07-22T02:38:31;7.13;;;4.47;;
28920;SDS011;16035;53.594;9.952;2023-07-22T02:40:34;5.97;;;3.83;;
28920;SDS011;16035;53.594;9.952;2023-07-22T02:42:35;7.78;;;4.45;;
28920;SDS011;16035;53.594;9.952;2023-07-22T02:44:35;9.17;;;4.63;;
28920;SDS011;16035;53.594;9.952;2023-07-22T02:46:35;7.70;;;4.83;;
28920;SDS011;16035;53.594;9.952;2023-07-22T02:48:36;8.03;;;4.27;;
28920;SDS011;16035;53.594;9.952;2023-07-22T02:50:36;9.38;;;5.10;;
28920;SDS011;16035;53.594;9.952;2023-07-22T02:52:37;9.77;;;5.20;;
28920;SDS011;16035;53.594;9.952;2023-07-22T02:54:40;8.33;;;4.70;;
28920;SDS011;16035;53.594;9.952;2023-07-22T02:56:41;10.18;;;4.82;;
28920;SDS011;16035;53.594;9.952;2023-07-22T02:58:41;8.00;;;4.87;;
28920;SDS011;16035;53.594;9.952;2023-07-22T03:00:42;12.57;;;4.87;;
28920;SDS011;16035;53.594;9.952;2023-07-22T03:02:43;8.77;;;4.95;;
28920;SDS011;16035;53.594;9.952;2023-07-22T03:04:43;12.20;;;5.00;;
28920;SDS011;16035;53.594;9.952;2023-07-22T03:06:44;9.67;;;4.90;;
28920;SDS011;16035;53.594;9.952;2023-07-22T03:08:45;7.75;;;4.45;;
28920;SDS011;16035;53.594;9.952;2023-07-22T03:10:45;6.83;;;4.17;;
28920;SDS011;16035;53.594;9.952;2023-07-22T03:12:48;8.25;;;4.50;;
28920;SDS011;16035;53.594;9.952;2023-07-22T03:14:48;9.30;;;4.70;;
28920;SDS011;16035;53.594;9.952;2023-07-22T03:16:49;10.17;;;4.30;;
28920;SDS011;16035;53.594;9.952;2023-07-22T03:18:49;7.83;;;3.87;;
28920;SDS011;16035;53.594;9.952;2023-07-22T03:20:49;7.67;;;4.50;;
28920;SDS011;16035;53.594;9.952;2023-07-22T03:22:50;9.90;;;4.53;;
28920;SDS011;16035;53.594;9.952;2023-07-22T03:24:50;12.27;;;5.47;;
28920;SDS011;16035;53.594;9.952;2023-07-22T03:26:50;8.23;;;5.03;;
28920;SDS011;16035;53.594;9.952;2023-07-22T03:28:51;8.40;;;4.60;;
28920;SDS011;16035;53.594;9.952;2023-07-22T03:30:51;9.10;;;5.03;;
28920;SDS011;16035;53.594;9.952;2023-07-22T03:32:52;9.30;;;4.97;;
28920;SDS011;16035;53.594;9.952;2023-07-22T03:34:53;6.60;;;4.13;;
28920;SDS011;16035;53.594;9.952;2023-07-22T03:36:53;9.93;;;4.93;;
28920;SDS011;16035;53.594;9.952;2023-07-22T03:38:53;8.17;;;4.23;;
28920;SDS011;16035;53.594;9.952;2023-07-22T03:40:54;11.00;;;4.93;;
28920;SDS011;16035;53.594;9.952;2023-07-22T03:42:54;13.23;;;4.97;;
28920;SDS011;16035;53.594;9.952;2023-07-22T03:44:56;9.27;;;4.35;;
28920;SDS011;16035;53.594;9.952;2023-07-22T03:46:56;7.30;;;4.10;;
28920;SDS011;16035;53.594;9.952;2023-07-22T03:48:56;8.07;;;4.43;;
28920;SDS011;16035;53.594;9.952;2023-07-22T03:50:57;10.30;;;4.53;;
28920;SDS011;16035;53.594;9.952;2023-07-22T03:52:57;8.83;;;4.23;;
28920;SDS011;16035;53.594;9.952;2023-07-22T03:54:58;8.10;;;4.63;;
28920;SDS011;16035;53.594;9.952;2023-07-22T03:56:59;9.47;;;4.60;;
28920;SDS011;16035;53.594;9.952;2023-07-22T03:58:59;9.63;;;4.37;;
28920;SDS011;16035;53.594;9.952;2023-07-22T04:00:59;10.30;;;4.53;;
28920;SDS011;16035;53.594;9.952;2023-07-22T04:03:00;8.53;;;4.47;;
28920;SDS011;16035;53.594;9.952;2023-07-22T04:05:00;11.67;;;4.37;;
28920;SDS011;16035;53.594;9.952;2023-07-22T04:07:00;10.27;;;4.50;;
28920;SDS011;16035;53.594;9.952;2023-07-22T04:09:01;11.27;;;5.03;;
28920;SDS011;16035;53.594;9.952;2023-07-22T04:11:01;5.93;;;3.97;;
28920;SDS011;16035;53.594;9.952;2023-07-22T04:13:02;7.53;;;4.30;;
28920;SDS011;16035;53.594;9.952;2023-07-22T04:15:02;8.53;;;4.23;;
28920;SDS011;16035;53.594;9.952;2023-07-22T04:17:03;9.60;;;4.17;;
28920;SDS011;16035;53.594;9.952;2023-07-22T04:19:06;6.97;;;4.30;;
28920;SDS011;16035;53.594;9.952;2023-07-22T04:21:07;10.47;;;3.63;;
28920;SDS011;16035;53.594;9.952;2023-07-22T04:23:07;10.10;;;5.07;;
28920;SDS011;16035;53.594;9.952;2023-07-22T04:25:07;6.47;;;4.27;;
28920;SDS011;16035;53.594;9.952;2023-07-22T04:27:08;8.02;;;4.15;;
28920;SDS011;16035;53.594;9.952;2023-07-22T04:29:09;8.33;;;4.63;;
28920;SDS011;16035;53.594;9.952;2023-07-22T04:31:11;9.65;;;4.57;;
28920;SDS011;16035;53.594;9.952;2023-07-22T04:33:11;6.80;;;4.47;;
28920;SDS011;16035;53.594;9.952;2023-07-22T04:35:11;8.50;;;4.50;;
28920;SDS011;16035;53.594;9.952;2023-07-22T04:37:12;9.17;;;4.60;;
28920;SDS011;16035;53.594;9.952;2023-07-22T04:39:14;7.10;;;3.67;;
28920;SDS011;16035;53.594;9.952;2023-07-22T04:41:14;12.52;;;4.53;;
28920;SDS011;16035;53.594;9.952;2023-07-22T04:43:14;8.23;;;4.43;;
28920;SDS011;16035;53.594;9.952;2023-07-22T04:45:15;8.63;;;4.33;;
28920;SDS011;16035;53.594;9.952;2023-07-22T04:47:15;10.67;;;4.53;;
28920;SDS011;16035;53.594;9.952;2023-07-22T04:49:16;6.50;;;3.80;;
28920;SDS011;16035;53.594;9.952;2023-07-22T04:53:17;8.77;;;4.30;;
28920;SDS011;16035;53.594;9.952;2023-07-22T04:55:18;7.57;;;4.37;;
28920;SDS011;16035;53.594;9.952;2023-07-22T04:57:20;8.43;;;4.43;;
28920;SDS011;16035;53.594;9.952;2023-07-22T04:59:21;9.43;;;4.13;;
28920;SDS011;16035;53.594;9.952;2023-07-22T05:01:21;9.20;;;4.57;;
28920;SDS011;16035;53.594;9.952;2023-07-22T05:03:22;8.80;;;4.85;;
28920;SDS011;16035;53.594;9.952;2023-07-22T05:05:25;7.75;;;4.75;;
28920;SDS011;16035;53.594;9.952;2023-07-22T05:07:25;10.23;;;4.97;;
28920;SDS011;16035;53.594;9.952;2023-07-22T05:09:26;9.75;;;4.90;;
28920;SDS011;16035;53.594;9.952;2023-07-22T05:11:26;10.10;;;4.80;;
28920;SDS011;16035;53.594;9.952;2023-07-22T05:13:27;10.00;;;4.97;;
28920;SDS011;16035;53.594;9.952;2023-07-22T05:15:27;7.77;;;4.80;;
28920;SDS011;16035;53.594;9.952;2023-07-22T05:17:27;7.40;;;5.20;;
28920;SDS011;16035;53.594;9.952;2023-07-22T05:21:29;10.10;;;4.10;;
28920;SDS011;16035;53.594;9.952;2023-07-22T05:23:29;16.33;;;4.87;;
28920;SDS011;16035;53.594;9.952;2023-07-22T05:25:30;7.90;;;4.40;;
28920;SDS011;16035;53.594;9.952;2023-07-22T05:27:30;11.03;;;4.57;;
28920;SDS011;16035;53.594;9.952;2023-07-22T05:29:30;7.83;;;4.20;;
28920;SDS011;16035;53.594;9.952;2023-07-22T05:31:31;9.00;;;4.50;;
28920;SDS011;16035;53.594;9.952;2023-07-22T05:33:31;8.57;;;3.87;;
28920;SDS011;16035;53.594;9.952;2023-07-22T05:35:31;6.00;;;3.90;;
28920;SDS011;16035;53.594;9.952;2023-07-22T05:37:32;9.63;;;3.60;;
28920;SDS011;16035;53.594;9.952;2023-07-22T05:39:32;8.17;;;3.70;;
28920;SDS011;16035;53.594;9.952;2023-07-22T05:41:33;9.47;;;4.43;;
28920;SDS011;16035;53.594;9.952;2023-07-22T05:43:34;10.40;;;5.00;;
28920;SDS011;16035;53.594;9.952;2023-07-22T05:45:34;7.20;;;3.60;;
28920;SDS011;16035;53.594;9.952;2023-07-22T05:47:34;7.20;;;3.50;;
28920;SDS011;16035;53.594;9.952;2023-07-22T05:49:35;7.67;;;4.00;;
28920;SDS011;16035;53.594;9.952;2023-07-22T05:51:35;8.83;;;4.03;;
28920;SDS011;16035;53.594;9.952;2023-07-22T05:53:35;8.27;;;4.30;;
28920;SDS011;16035;53.594;9.952;2023-07-22T05:55:36;6.27;;;3.53;;
28920;SDS011;16035;53.594;9.952;2023-07-22T05:57:36;6.23;;;3.43;;
28920;SDS011;16035;53.594;9.952;2023-07-22T05:59:37;7.67;;;3.47;;
28920;SDS011;16035;53.594;9.952;2023-07-22T06:01:37;5.73;;;3.63;;
28920;SDS011;16035;53.594;9.952;2023-07-22T06:03:38;10.30;;;3.50;;
28920;SDS011;16035;53.594;9.952;2023-07-22T06:05:38;5.83;;;2.80;;
28920;SDS011;16035;53.594;9.952;2023-07-22T06:07:38;7.40;;;3.23;;
28920;SDS011;16035;53.594;9.952;2023-07-22T06:09:39;7.13;;;3.47;;
28920;SDS011;16035;53.594;9.952;2023-07-22T06:11:39;6.90;;;3.33;;
28920;SDS011;16035;53.594;9.952;2023-07-22T06:13:39;5.43;;;2.67;;
28920;SDS011;16035;53.594;9.952;2023-07-22T06:15:40;6.83;;;3.53;;
28920;SDS011;16035;53.594;9.952;2023-07-22T06:17:40;7.43;;;3.67;;
28920;SDS011;16035;53.594;9.952;2023-07-22T06:19:40;5.07;;;3.07;;
28920;SDS011;16035;53.594;9.952;2023-07-22T06:21:41;8.30;;;3.33;;
28920;SDS011;16035;53.594;9.952;2023-07-22T06:23:41;7.13;;;2.90;;
28920;SDS011;16035;53.594;9.952;2023-07-22T06:25:41;5.93;;;3.10;;
28920;SDS011;16035;53.594;9.952;2023-07-22T06:27:42;6.73;;;2.83;;
28920;SDS011;16035;53.594;9.952;2023-07-22T06:29:43;4.57;;;2.78;;
28920;SDS011;16035;53.594;9.952;2023-07-22T06:31:43;7.50;;;3.00;;
28920;SDS011;16035;53.594;9.952;2023-07-22T06:33:43;5.23;;;2.97;;
28920;SDS011;16035;53.594;9.952;2023-07-22T06:35:44;5.57;;;2.80;;
28920;SDS011;16035;53.594;9.952;2023-07-22T06:37:44;5.97;;;2.63;;
28920;SDS011;16035;53.594;9.952;2023-07-22T06:39:44;8.60;;;2.93;;
28920;SDS011;16035;53.594;9.952;2023-07-22T06:41:45;11.17;;;3.23;;
28920;SDS011;16035;53.594;9.952;2023-07-22T06:43:45;9.03;;;2.50;;
28920;SDS011;16035;53.594;9.952;2023-07-22T06:45:46;3.75;;;2.10;;
28920;SDS011;16035;53.594;9.952;2023-07-22T06:47:46;4.57;;;2.27;;
28920;SDS011;16035;53.594;9.952;2023-07-22T06:49:47;5.88;;;2.20;;
28920;SDS011;16035;53.594;9.952;2023-07-22T06:51:47;3.93;;;2.07;;
28920;SDS011;16035;53.594;9.952;2023-07-22T06:53:47;4.47;;;2.47;;
28920;SDS011;16035;53.594;9.952;2023-07-22T06:55:48;5.20;;;2.50;;
28920;SDS011;16035;53.594;9.952;2023-07-22T06:57:50;4.15;;;2.38;;
28920;SDS011;16035;53.594;9.952;2023-07-22T06:59:50;7.30;;;2.10;;
28920;SDS011;16035;53.594;9.952;2023-07-22T07:01:51;3.83;;;2.13;;
28920;SDS011;16035;53.594;9.952;2023-07-22T07:03:51;3.30;;;1.97;;
28920;SDS011;16035;53.594;9.952;2023-07-22T07:05:52;5.43;;;1.80;;
28920;SDS011;16035;53.594;9.952;2023-07-22T07:07:56;3.40;;;1.60;;
28920;SDS011;16035;53.594;9.952;2023-07-22T07:09:56;5.77;;;1.90;;
28920;SDS011;16035;53.594;9.952;2023-07-22T07:11:56;2.80;;;1.60;;
28920;SDS011;16035;53.594;9.952;2023-07-22T07:13:57;2.97;;;1.80;;
28920;SDS011;16035;53.594;9.952;2023-07-22T07:15:58;3.45;;;1.40;;
28920;SDS011;16035;53.594;9.952;2023-07-22T07:18:25;3.75;;;1.95;;
28920;SDS011;16035;53.594;9.952;2023-07-22T07:20:25;4.90;;;1.77;;
28920;SDS011;16035;53.594;9.952;2023-07-22T07:22:25;4.27;;;2.03;;
28920;SDS011;16035;53.594;9.952;2023-07-22T07:24:26;6.00;;;2.20;;
28920;SDS011;16035;53.594;9.952;2023-07-22T07:26:27;4.53;;;1.88;;
28920;SDS011;16035;53.594;9.952;2023-07-22T07:28:27;2.70;;;1.63;;
28920;SDS011;16035;53.594;9.952;2023-07-22T07:30:28;3.10;;;1.47;;
28920;SDS011;16035;53.594;9.952;2023-07-22T07:32:28;12.33;;;6.13;;
28920;SDS011;16035;53.594;9.952;2023-07-22T07:34:28;4.27;;;2.57;;
28920;SDS011;16035;53.594;9.952;2023-07-22T07:36:29;3.83;;;1.80;;
28920;SDS011;16035;53.594;9.952;2023-07-22T07:38:30;2.67;;;1.35;;
28920;SDS011;16035;53.594;9.952;2023-07-22T07:40:31;3.17;;;1.67;;
28920;SDS011;16035;53.594;9.952;2023-07-22T07:42:32;4.75;;;1.60;;
28920;SDS011;16035;53.594;9.952;2023-07-22T07:44:32;2.10;;;1.30;;
28920;SDS011;16035;53.594;9.952;2023-07-22T07:46:32;2.10;;;1.37;;
28920;SDS011;16035;53.594;9.952;2023-07-22T07:48:32;2.10;;;1.50;;
28920;SDS011;16035;53.594;9.952;2023-07-22T07:50:33;1.50;;;1.10;;
28920;SDS011;16035;53.594;9.952;2023-07-22T07:52:33;2.00;;;1.40;;
28920;SDS011;16035;53.594;9.952;2023-07-22T07:54:33;3.90;;;1.60;;
28920;SDS011;16035;53.594;9.952;2023-07-22T07:56:34;5.57;;;1.50;;
28920;SDS011;16035;53.594;9.952;2023-07-22T07:58:34;2.53;;;1.40;;
28920;SDS011;16035;53.594;9.952;2023-07-22T08:00:34;2.97;;;1.43;;
28920;SDS011;16035;53.594;9.952;2023-07-22T08:02:35;2.67;;;1.40;;
28920;SDS011;16035;53.594;9.952;2023-07-22T08:04:36;2.58;;;1.50;;
28920;SDS011;16035;53.594;9.952;2023-07-22T08:06:37;2.00;;;1.30;;
28920;SDS011;16035;53.594;9.952;2023-07-22T08:08:37;4.15;;;1.58;;
28920;SDS011;16035;53.594;9.952;2023-07-22T08:10:38;2.38;;;1.08;;
28920;SDS011;16035;53.594;9.952;2023-07-22T08:12:39;4.03;;;1.00;;
28920;SDS011;16035;53.594;9.952;2023-07-22T08:14:39;3.37;;;1.23;;
28920;SDS011;16035;53.594;9.952;2023-07-22T08:16:40;1.60;;;0.80;;
28920;SDS011;16035;53.594;9.952;2023-07-22T08:18:40;3.50;;;1.20;;
28920;SDS011;16035;53.594;9.952;2023-07-22T08:20:40;5.13;;;1.00;;
28920;SDS011;16035;53.594;9.952;2023-07-22T08:22:41;2.65;;;1.25;;
28920;SDS011;16035;53.594;9.952;2023-07-22T08:24:41;4.40;;;0.93;;
28920;SDS011;16035;53.594;9.952;2023-07-22T08:26:42;3.93;;;1.23;;
28920;SDS011;16035;53.594;9.952;2023-07-22T08:28:42;1.33;;;0.90;;
28920;SDS011;16035;53.594;9.952;2023-07-22T08:30:43;4.10;;;1.00;;
28920;SDS011;16035;53.594;9.952;2023-07-22T08:32:44;2.80;;;0.80;;
28920;SDS011;16035;53.594;9.952;2023-07-22T08:34:45;2.63;;;1.53;;
28920;SDS011;16035;53.594;9.952;2023-07-22T08:36:45;1.10;;;0.90;;
28920;SDS011;16035;53.594;9.952;2023-07-22T08:38:45;1.27;;;0.90;;
28920;SDS011;16035;53.594;9.952;2023-07-22T08:40:48;2.10;;;0.63;;
28920;SDS011;16035;53.594;9.952;2023-07-22T08:42:50;1.92;;;0.90;;
28920;SDS011;16035;53.594;9.952;2023-07-22T08:44:53;2.25;;;0.88;;
28920;SDS011;16035;53.594;9.952;2023-07-22T08:46:57;2.30;;;0.70;;
28920;SDS011;16035;53.594;9.952;2023-07-22T08:48:59;2.05;;;0.80;;
28920;SDS011;16035;53.594;9.952;2023-07-22T08:53:05;0.95;;;0.50;;
28920;SDS011;16035;53.594;9.952;2023-07-22T08:55:05;3.40;;;0.80;;
28920;SDS011;16035;53.594;9.952;2023-07-22T08:57:07;4.55;;;0.82;;
28920;SDS011;16035;53.594;9.952;2023-07-22T08:59:09;2.05;;;1.08;;
28920;SDS011;16035;53.594;9.952;2023-07-22T09:01:10;1.00;;;0.70;;
28920;SDS011;16035;53.594;9.952;2023-07-22T09:03:11;2.30;;;1.00;;
28920;SDS011;16035;53.594;9.952;2023-07-22T09:05:11;0.83;;;0.67;;
28920;SDS011;16035;53.594;9.952;2023-07-22T09:07:11;0.90;;;0.83;;
28920;SDS011;16035;53.594;9.952;2023-07-22T09:09:14;1.15;;;0.70;;
28920;SDS011;16035;53.594;9.952;2023-07-22T09:11:15;0.90;;;0.60;;
28920;SDS011;16035;53.594;9.952;2023-07-22T09:13:16;0.60;;;0.60;;
28920;SDS011;16035;53.594;9.952;2023-07-22T09:15:19;1.13;;;0.68;;
28920;SDS011;16035;53.594;9.952;2023-07-22T09:17:20;1.10;;;0.63;;
28920;SDS011;16035;53.594;9.952;2023-07-22T09:19:21;1.37;;;0.70;;
28920;SDS011;16035;53.594;9.952;2023-07-22T09:21:21;1.07;;;0.63;;
28920;SDS011;16035;53.594;9.952;2023-07-22T09:23:33;1.80;;;0.73;;
28920;SDS011;16035;53.594;9.952;2023-07-22T09:25:34;2.30;;;0.70;;
28920;SDS011;16035;53.594;9.952;2023-07-22T09:27:34;1.60;;;0.93;;
28920;SDS011;16035;53.594;9.952;2023-07-22T09:29:38;1.60;;;0.90;;
28920;SDS011;16035;53.594;9.952;2023-07-22T09:31:50;3.10;;;0.80;;
28920;SDS011;16035;53.594;9.952;2023-07-22T09:33:52;1.02;;;0.65;;
28920;SDS011;16035;53.594;9.952;2023-07-22T09:35:56;1.50;;;0.85;;
28920;SDS011;16035;53.594;9.952;2023-07-22T09:37:56;4.57;;;0.73;;
28920;SDS011;16035;53.594;9.952;2023-07-22T09:39:58;1.30;;;0.80;;
28920;SDS011;16035;53.594;9.952;2023-07-22T09:41:58;3.27;;;0.87;;
28920;SDS011;16035;53.594;9.952;2023-07-22T09:44:02;3.60;;;0.80;;
28920;SDS011;16035;53.594;9.952;2023-07-22T09:46:06;1.85;;;0.90;;
28920;SDS011;16035;53.594;9.952;2023-07-22T09:48:09;1.85;;;0.80;;
28920;SDS011;16035;53.594;9.952;2023-07-22T09:50:42;0.98;;;0.88;;
28920;SDS011;16035;53.594;9.952;2023-07-22T09:52:40;1.45;;;0.85;;
28920;SDS011;16035;53.594;9.952;2023-07-22T09:54:46;4.07;;;1.05;;
28920;SDS011;16035;53.594;9.952;2023-07-22T09:56:48;1.10;;;0.90;;
28920;SDS011;16035;53.594;9.952;2023-07-22T09:58:50;3.45;;;0.80;;
28920;SDS011;16035;53.594;9.952;2023-07-22T10:00:51;1.33;;;0.70;;
28920;SDS011;16035;53.594;9.952;2023-07-22T10:02:52;1.37;;;0.67;;
28920;SDS011;16035;53.594;9.952;2023-07-22T10:04:55;2.13;;;0.80;;
28920;SDS011;16035;53.594;9.952;2023-07-22T10:06:59;1.55;;;0.95;;
28920;SDS011;16035;53.594;9.952;2023-07-22T10:09:01;1.35;;;0.80;;
28920;SDS011;16035;53.594;9.952;2023-07-22T10:11:07;0.63;;;0.63;;
28920;SDS011;16035;53.594;9.952;2023-07-22T10:13:10;2.58;;;0.90;;
28920;SDS011;16035;53.594;9.952;2023-07-22T10:15:11;1.75;;;0.90;;
28920;SDS011;16035;53.594;9.952;2023-07-22T10:17:13;1.08;;;0.95;;
28920;SDS011;16035;53.594;9.952;2023-07-22T10:21:15;2.10;;;1.17;;
28920;SDS011;16035;53.594;9.952;2023-07-22T10:23:16;1.33;;;0.70;;
28920;SDS011;16035;53.594;9.952;2023-07-22T10:25:18;0.88;;;0.60;;
28920;SDS011;16035;53.594;9.952;2023-07-22T10:27:19;2.97;;;0.98;;
28920;SDS011;16035;53.594;9.952;2023-07-22T10:29:20;1.77;;;1.00;;
28920;SDS011;16035;53.594;9.952;2023-07-22T10:31:20;0.70;;;0.70;;
28920;SDS011;16035;53.594;9.952;2023-07-22T10:33:22;3.20;;;1.10;;
28920;SDS011;16035;53.594;9.952;2023-07-22T10:37:31;0.98;;;0.70;;
28920;SDS011;16035;53.594;9.952;2023-07-22T10:39:33;1.73;;;0.82;;
28920;SDS011;16035;53.594;9.952;2023-07-22T10:41:33;3.20;;;1.30;;
28920;SDS011;16035;53.594;9.952;2023-07-22T10:43:38;3.97;;;0.80;;
28920;SDS011;16035;53.594;9.952;2023-07-22T10:45:40;1.40;;;0.80;;
28920;SDS011;16035;53.594;9.952;2023-07-22T10:47:41;1.92;;;0.98;;
28920;SDS011;16035;53.594;9.952;2023-07-22T10:49:46;1.00;;;0.93;;
28920;SDS011;16035;53.594;9.952;2023-07-22T10:51:48;0.88;;;0.77;;
28920;SDS011;16035;53.594;9.952;2023-07-22T10:53:50;0.82;;;0.68;;
28920;SDS011;16035;53.594;9.952;2023-07-22T10:56:07;1.33;;;0.90;;
28920;SDS011;16035;53.594;9.952;2023-07-22T10:58:13;2.15;;;0.73;;
28920;SDS011;16035;53.594;9.952;2023-07-22T11:00:20;2.37;;;0.80;;
28920;SDS011;16035;53.594;9.952;2023-07-22T11:02:25;1.77;;;1.15;;
28920;SDS011;16035;53.594;9.952;2023-07-22T11:04:26;2.63;;;1.20;;
28920;SDS011;16035;53.594;9.952;2023-07-22T11:06:35;0.88;;;0.88;;
28920;SDS011;16035;53.594;9.952;2023-07-22T11:08:37;1.13;;;1.02;;
28920;SDS011;16035;53.594;9.952;2023-07-22T11:10:49;2.78;;;1.00;;
28920;SDS011;16035;53.594;9.952;2023-07-22T11:12:53;1.33;;;1.20;;
28920;SDS011;16035;53.594;9.952;2023-07-22T11:15:01;1.93;;;1.10;;
28920;SDS011;16035;53.594;9.952;2023-07-22T11:17:03;1.63;;;1.02;;
28920;SDS011;16035;53.594;9.952;2023-07-22T11:19:05;1.70;;;1.40;;
28920;SDS011;16035;53.594;9.952;2023-07-22T11:21:14;1.80;;;1.33;;
28920;SDS011;16035;53.594;9.952;2023-07-22T11:23:14;2.60;;;1.42;;
28920;SDS011;16035;53.594;9.952;2023-07-22T11:25:17;1.80;;;1.53;;
28920;SDS011;16035;53.594;9.952;2023-07-22T11:27:18;2.17;;;1.50;;
28920;SDS011;16035;53.594;9.952;2023-07-22T11:29:19;1.83;;;1.40;;
28920;SDS011;16035;53.594;9.952;2023-07-22T11:31:20;2.28;;;1.85;;
28920;SDS011;16035;53.594;9.952;2023-07-22T11:33:20;2.00;;;1.70;;
28920;SDS011;16035;53.594;9.952;2023-07-22T11:35:21;3.05;;;1.83;;
28920;SDS011;16035;53.594;9.952;2023-07-22T11:37:22;3.60;;;2.30;;
28920;SDS011;16035;53.594;9.952;2023-07-22T11:39:23;3.20;;;1.97;;
28920;SDS011;16035;53.594;9.952;2023-07-22T11:41:25;3.13;;;1.92;;
28920;SDS011;16035;53.594;9.952;2023-07-22T11:43:25;3.33;;;1.73;;
28920;SDS011;16035;53.594;9.952;2023-07-22T11:45:26;2.55;;;1.90;;
28920;SDS011;16035;53.594;9.952;2023-07-22T11:47:29;2.77;;;1.60;;
28920;SDS011;16035;53.594;9.952;2023-07-22T11:51:35;3.00;;;1.80;;
28920;SDS011;16035;53.594;9.952;2023-07-22T11:53:36;3.08;;;1.85;;
28920;SDS011;16035;53.594;9.952;2023-07-22T11:55:36;2.30;;;1.77;;
28920;SDS011;16035;53.594;9.952;2023-07-22T11:57:38;4.20;;;1.70;;
28920;SDS011;16035;53.594;9.952;2023-07-22T11:59:43;2.70;;;1.90;;
28920;SDS011;16035;53.594;9.952;2023-07-22T12:01:45;4.55;;;2.20;;
28920;SDS011;16035;53.594;9.952;2023-07-22T12:03:46;2.38;;;1.80;;
28920;SDS011;16035;53.594;9.952;2023-07-22T12:05:47;3.65;;;2.33;;
28920;SDS011;16035;53.594;9.952;2023-07-22T12:07:47;5.93;;;1.60;;
28920;SDS011;16035;53.594;9.952;2023-07-22T12:09:48;4.13;;;1.93;;
28920;SDS011;16035;53.594;9.952;2023-07-22T12:14:13;3.35;;;2.25;;
28920;SDS011;16035;53.594;9.952;2023-07-22T12:16:13;2.78;;;2.42;;
28920;SDS011;16035;53.594;9.952;2023-07-22T12:18:14;3.23;;;2.30;;
28920;SDS011;16035;53.594;9.952;2023-07-22T12:20:15;3.13;;;2.37;;
28920;SDS011;16035;53.594;9.952;2023-07-22T12:22:16;3.05;;;2.25;;
28920;SDS011;16035;53.594;9.952;2023-07-22T12:24:16;3.67;;;2.13;;
28920;SDS011;16035;53.594;9.952;2023-07-22T12:26:17;2.70;;;2.33;;
28920;SDS011;16035;53.594;9.952;2023-07-22T12:28:17;3.47;;;2.20;;
28920;SDS011;16035;53.594;9.952;2023-07-22T12:30:18;3.87;;;2.10;;